createdAt,value
2019-05-01T00:01:01.702Z,21.07
2019-05-01T00:03:49.640Z,18.07
2019-05-01T00:06:22.236Z,19.07
2019-05-01T00:08:55.756Z,22.90
2019-05-01T00:11:26.750Z,17.23
2019-05-01T00:13:57.862Z,18.83
2019-05-01T00:16:28.856Z,17.87
2019-05-01T00:18:59.886Z,19.57
2019-05-01T00:21:30.935Z,16.40
2019-05-01T00:24:01.968Z,18.23
2019-05-01T00:26:32.908Z,22.33
2019-05-01T00:29:03.945Z,18.10
2019-05-01T00:31:34.992Z,18.70
2019-05-01T00:34:06.008Z,18.03
2019-05-01T00:36:37.005Z,18.60
2019-05-01T00:39:09.464Z,18.13
2019-05-01T00:41:40.481Z,21.30
2019-05-01T00:44:11.514Z,19.90
2019-05-01T00:46:42.443Z,19.80
2019-05-01T00:49:13.467Z,18.67
2019-05-01T00:51:45.972Z,18.07
2019-05-01T00:54:17.815Z,18.87
2019-05-01T00:56:50.401Z,19.03
2019-05-01T00:59:22.966Z,17.83
2019-05-01T01:02:06.091Z,20.53
2019-05-01T01:04:37.114Z,19.67
2019-05-01T01:07:09.684Z,19.67
2019-05-01T01:09:42.178Z,22.30
2019-05-01T01:12:13.164Z,20.07
2019-05-01T01:14:47.342Z,24.13
2019-05-01T01:17:18.364Z,24.23
2019-05-01T01:19:49.378Z,24.57
2019-05-01T01:22:20.478Z,20.73
2019-05-01T01:24:53.161Z,24.00
2019-05-01T01:27:26.046Z,25.70
2019-05-01T01:29:57.066Z,22.13
2019-05-01T01:32:28.075Z,23.13
2019-05-01T01:34:59.124Z,23.97
2019-05-01T01:37:30.120Z,20.77
2019-05-01T01:40:04.698Z,23.57
2019-05-01T01:42:36.288Z,23.47
2019-05-01T01:45:12.458Z,22.87
2019-05-01T01:48:01.440Z,21.63
2019-05-01T01:50:32.876Z,22.57
2019-05-01T01:53:04.067Z,24.07
2019-05-01T01:55:36.212Z,26.50
2019-05-01T01:58:08.408Z,21.50
2019-05-01T02:00:41.110Z,24.33
2019-05-01T02:03:12.468Z,21.83
2019-05-01T02:05:45.186Z,24.80
2019-05-01T02:08:16.427Z,21.87
2019-05-01T02:10:47.520Z,23.73
2019-05-01T02:13:19.995Z,21.67
2019-05-01T02:15:51.890Z,23.97
2019-05-01T02:18:22.916Z,21.63
2019-05-01T02:20:53.958Z,24.30
2019-05-01T02:23:24.992Z,24.20
2019-05-01T02:25:56.162Z,24.50
2019-05-01T02:28:35.169Z,22.73
2019-05-01T02:31:08.470Z,27.73
2019-05-01T02:33:41.467Z,24.13
2019-05-01T02:36:14.662Z,25.00
2019-05-01T02:38:47.824Z,26.07
2019-05-01T02:41:21.895Z,27.73
2019-05-01T02:43:58.329Z,29.00
2019-05-01T02:46:32.020Z,26.57
2019-05-01T02:49:12.179Z,27.13
2019-05-01T02:51:47.432Z,29.67
2019-05-01T02:54:22.604Z,27.17
2019-05-01T02:57:11.462Z,27.73
2019-05-01T02:59:47.354Z,27.73
2019-05-01T03:02:20.102Z,26.30
2019-05-01T03:04:52.897Z,28.30
2019-05-01T03:07:26.167Z,28.77
2019-05-01T03:09:59.175Z,27.70
2019-05-01T03:12:35.006Z,27.20
2019-05-01T03:15:06.590Z,27.33
2019-05-01T03:17:43.432Z,27.53
2019-05-01T03:20:32.511Z,32.07
2019-05-01T03:23:20.586Z,26.00
2019-05-01T03:25:52.324Z,30.83
2019-05-01T03:28:27.509Z,27.27
2019-05-01T03:31:00.114Z,26.17
2019-05-01T03:33:31.217Z,25.43
2019-05-01T03:36:02.340Z,26.73
2019-05-01T03:38:33.493Z,25.17
2019-05-01T03:41:04.680Z,28.37
2019-05-01T03:43:36.367Z,23.90
2019-05-01T03:46:07.994Z,26.60
2019-05-01T03:48:39.375Z,23.60
2019-05-01T03:51:10.519Z,22.10
2019-05-01T03:53:42.085Z,25.10
2019-05-01T03:56:14.048Z,25.00
2019-05-01T03:58:46.733Z,25.97
2019-05-01T04:01:26.359Z,25.63
2019-05-01T04:03:59.784Z,22.67
2019-05-01T04:06:31.295Z,24.17
2019-05-01T04:09:04.889Z,20.50
2019-05-01T04:11:36.214Z,18.87
2019-05-01T04:14:08.392Z,20.57
2019-05-01T04:16:41.514Z,21.13
2019-05-01T04:19:13.166Z,21.77
2019-05-01T04:21:45.871Z,20.57
2019-05-01T04:24:19.025Z,18.17
2019-05-01T04:26:50.086Z,19.83
2019-05-01T04:29:24.056Z,20.20
2019-05-01T04:31:56.749Z,20.33
2019-05-01T04:34:29.591Z,19.80
2019-05-01T04:37:02.898Z,18.67
2019-05-01T04:39:35.855Z,20.73
2019-05-01T04:42:06.908Z,19.17
2019-05-01T04:44:38.210Z,18.70
2019-05-01T04:47:09.454Z,18.80
2019-05-01T04:49:41.134Z,16.43
2019-05-01T04:52:12.427Z,19.62
2019-05-01T04:54:43.702Z,18.67
2019-05-01T04:57:15.455Z,19.87
2019-05-01T04:59:48.689Z,19.80
2019-05-01T05:02:27.701Z,19.55
2019-05-01T05:04:58.770Z,18.90
2019-05-01T05:07:29.926Z,18.07
2019-05-01T05:10:02.467Z,20.52
2019-05-01T05:12:35.239Z,18.70
2019-05-01T05:15:09.084Z,18.40
2019-05-01T05:17:40.115Z,17.77
2019-05-01T05:20:11.291Z,16.90
2019-05-01T05:22:43.015Z,19.07
2019-05-01T05:25:14.062Z,18.57
2019-05-01T05:27:47.863Z,18.05
2019-05-01T05:30:23.494Z,17.92
2019-05-01T05:32:56.385Z,17.65
2019-05-01T05:35:29.531Z,18.00
2019-05-01T05:38:07.972Z,17.20
2019-05-01T05:40:40.123Z,21.25
2019-05-01T05:43:11.272Z,18.70
2019-05-01T05:45:44.443Z,19.60
2019-05-01T05:48:17.092Z,16.50
2019-05-01T05:51:10.896Z,18.05
2019-05-01T05:53:44.960Z,15.70
2019-05-01T05:56:21.995Z,19.55
2019-05-01T05:59:01.694Z,18.05
2019-05-01T06:01:42.698Z,16.15
2019-05-01T06:04:34.807Z,14.85
2019-05-01T06:07:11.490Z,17.82
2019-05-01T06:09:48.496Z,16.65
2019-05-01T06:12:33.160Z,20.27
2019-05-01T06:15:06.386Z,15.15
2019-05-01T06:17:53.108Z,15.15
2019-05-01T06:20:32.500Z,16.27
2019-05-01T06:23:06.630Z,15.35
2019-05-01T06:25:40.740Z,15.72
2019-05-01T06:28:12.905Z,15.90
2019-05-01T06:30:47.060Z,15.05
2019-05-01T06:33:17.555Z,14.40
2019-05-01T06:35:48.593Z,13.18
2019-05-01T06:38:19.673Z,15.10
2019-05-01T06:40:53.067Z,13.50
2019-05-01T06:43:29.903Z,14.68
2019-05-01T06:46:11.705Z,14.15
2019-05-01T06:48:53.520Z,13.25
2019-05-01T06:51:36.179Z,13.20
2019-05-01T06:54:16.351Z,15.40
2019-05-01T06:56:49.943Z,13.03
2019-05-01T06:59:26.364Z,13.53
2019-05-01T07:01:58.316Z,13.28
2019-05-01T07:04:32.299Z,13.40
2019-05-01T07:07:06.903Z,14.63
2019-05-01T07:09:38.068Z,13.50
2019-05-01T07:12:12.247Z,13.60
2019-05-01T07:14:47.052Z,12.43
2019-05-01T07:17:19.254Z,12.40
2019-05-01T07:20:16.398Z,14.28
2019-05-01T07:22:44.788Z,14.35
2019-05-01T07:25:18.991Z,14.07
2019-05-01T07:27:53.939Z,11.25
2019-05-01T07:30:26.071Z,13.40
2019-05-01T07:32:57.781Z,8.90
2019-05-01T07:35:33.015Z,10.50
2019-05-01T07:38:03.463Z,12.85
2019-05-01T07:40:34.854Z,11.63
2019-05-01T07:43:19.104Z,13.10
2019-05-01T07:45:51.965Z,10.08
2019-05-01T07:48:36.118Z,9.80
2019-05-01T07:51:08.753Z,8.15
2019-05-01T07:53:40.376Z,9.10
2019-05-01T07:56:11.496Z,9.60
2019-05-01T07:58:42.599Z,9.20
2019-05-01T08:01:21.083Z,10.18
2019-05-01T08:03:55.207Z,10.90
2019-05-01T08:06:27.108Z,8.40
2019-05-01T08:08:58.131Z,12.13
2019-05-01T08:11:29.189Z,7.22
2019-05-01T08:14:07.350Z,6.95
2019-05-01T08:16:37.818Z,9.65
2019-05-01T08:19:17.514Z,6.72
2019-05-01T08:21:57.040Z,7.05
2019-05-01T08:24:26.845Z,6.60
2019-05-01T08:26:57.957Z,11.18
2019-05-01T08:29:45.830Z,6.45
2019-05-01T08:32:33.678Z,6.42
2019-05-01T08:35:08.487Z,6.37
2019-05-01T08:37:40.543Z,5.53
2019-05-01T08:40:20.410Z,6.58
2019-05-01T08:42:48.957Z,7.85
2019-05-01T08:45:30.839Z,11.35
2019-05-01T08:48:15.701Z,8.93
2019-05-01T08:50:46.902Z,4.40
2019-05-01T08:53:21.783Z,5.70
2019-05-01T08:55:52.379Z,6.85
2019-05-01T08:58:23.528Z,5.55
2019-05-01T09:00:54.607Z,6.17
2019-05-01T09:03:25.699Z,5.75
2019-05-01T09:05:57.716Z,7.42
2019-05-01T09:08:32.057Z,6.60
2019-05-01T09:11:03.467Z,7.60
2019-05-01T09:13:34.551Z,9.43
2019-05-01T09:16:05.636Z,5.78
2019-05-01T09:18:36.702Z,10.35
2019-05-01T09:21:07.811Z,6.80
2019-05-01T09:23:39.764Z,5.75
2019-05-01T09:26:30.539Z,6.05
2019-05-01T09:29:11.083Z,7.50
2019-05-01T09:31:42.369Z,6.10
2019-05-01T09:34:19.146Z,8.05
2019-05-01T09:36:47.190Z,5.22
2019-05-01T09:39:19.915Z,7.37
2019-05-01T09:41:51.015Z,4.97
2019-05-01T09:44:25.356Z,4.35
2019-05-01T09:47:02.517Z,4.42
2019-05-01T09:49:33.665Z,6.15
2019-05-01T09:52:23.409Z,5.47
2019-05-01T09:54:56.757Z,4.55
2019-05-01T09:57:27.922Z,8.18
2019-05-01T09:59:59.083Z,5.65
2019-05-01T10:02:33.463Z,5.25
2019-05-01T10:05:07.943Z,4.53
2019-05-01T10:07:39.204Z,4.92
2019-05-01T10:10:11.145Z,5.20
2019-05-01T10:12:46.874Z,4.33
2019-05-01T10:15:16.025Z,3.90
2019-05-01T10:17:47.184Z,4.37
2019-05-01T10:20:18.336Z,6.28
2019-05-01T10:22:49.469Z,6.15
2019-05-01T10:25:21.385Z,5.15
2019-05-01T10:27:54.062Z,6.20
2019-05-01T10:30:31.698Z,5.33
2019-05-01T10:33:03.713Z,8.93
2019-05-01T10:35:42.965Z,4.65
2019-05-01T10:38:10.677Z,6.55
2019-05-01T10:40:42.854Z,5.10
2019-05-01T10:43:14.014Z,5.08
2019-05-01T10:45:45.106Z,7.08
2019-05-01T10:48:16.145Z,4.37
2019-05-01T10:50:47.207Z,7.45
2019-05-01T10:53:18.278Z,4.08
2019-05-01T10:55:49.488Z,9.90
2019-05-01T10:58:20.534Z,5.42
2019-05-01T11:00:53.287Z,4.17
2019-05-01T11:03:24.310Z,6.30
2019-05-01T11:05:56.408Z,7.87
2019-05-01T11:08:27.559Z,5.58
2019-05-01T11:11:01.034Z,5.83
2019-05-01T11:13:33.674Z,6.10
2019-05-01T11:16:05.757Z,4.40
2019-05-01T11:18:36.798Z,6.72
2019-05-01T11:21:07.878Z,9.28
2019-05-01T11:23:38.936Z,7.05
2019-05-01T11:26:10.862Z,7.80
2019-05-01T11:28:41.894Z,4.87
2019-05-01T11:31:14.539Z,8.53
2019-05-01T11:33:59.416Z,9.03
2019-05-01T11:36:48.476Z,4.70
2019-05-01T11:39:21.070Z,5.28
2019-05-01T11:42:06.690Z,5.62
2019-05-01T11:44:37.732Z,5.83
2019-05-01T11:47:08.834Z,4.78
2019-05-01T11:49:39.907Z,7.55
2019-05-01T11:52:11.078Z,5.85
2019-05-01T11:54:42.167Z,34.45
2019-05-01T11:57:14.114Z,10.05
2019-05-01T11:59:45.302Z,7.03
2019-05-01T12:02:16.462Z,7.03
2019-05-01T12:04:47.667Z,6.85
2019-05-01T12:07:20.065Z,9.43
2019-05-01T12:09:51.769Z,7.53
2019-05-01T12:12:25.403Z,5.83
2019-05-01T12:14:57.362Z,7.03
2019-05-01T12:17:33.758Z,5.90
2019-05-01T12:20:08.827Z,9.73
2019-05-01T12:22:40.158Z,7.05
2019-05-01T12:25:11.325Z,4.92
2019-05-01T12:27:45.090Z,4.95
2019-05-01T12:30:17.752Z,4.65
2019-05-01T12:32:49.176Z,7.37
2019-05-01T12:35:20.386Z,5.97
2019-05-01T12:37:55.410Z,6.20
2019-05-01T12:40:26.411Z,6.40
2019-05-01T12:42:58.366Z,4.70
2019-05-01T12:45:30.750Z,6.20
2019-05-01T12:48:03.483Z,6.20
2019-05-01T12:50:35.878Z,6.22
2019-05-01T12:53:15.300Z,4.40
2019-05-01T12:55:49.243Z,8.13
2019-05-01T12:58:28.961Z,7.65
2019-05-01T13:01:03.254Z,5.35
2019-05-01T13:03:35.232Z,6.72
2019-05-01T13:06:07.678Z,6.33
2019-05-01T13:08:39.765Z,4.55
2019-05-01T13:11:11.913Z,5.75
2019-05-01T13:13:43.949Z,16.65
2019-05-01T13:16:15.132Z,13.45
2019-05-01T13:18:46.207Z,10.58
2019-05-01T13:21:17.353Z,6.83
2019-05-01T13:23:54.304Z,5.15
2019-05-01T13:26:30.620Z,5.55
2019-05-01T13:29:13.056Z,4.58
2019-05-01T13:31:51.529Z,6.53
2019-05-01T13:34:22.848Z,6.08
2019-05-01T13:37:02.784Z,5.92
2019-05-01T13:39:26.895Z,6.33
2019-05-01T13:41:58.077Z,8.80
2019-05-01T13:44:30.120Z,5.67
2019-05-01T13:47:01.965Z,7.08
2019-05-01T13:49:33.211Z,5.67
2019-05-01T13:52:04.440Z,6.90
2019-05-01T13:54:35.714Z,9.05
2019-05-01T13:57:06.947Z,7.20
2019-05-01T13:59:38.239Z,4.00
2019-05-01T14:02:09.511Z,5.58
2019-05-01T14:04:40.648Z,10.68
2019-05-01T14:07:16.608Z,20.32
2019-05-01T14:09:44.531Z,23.45
2019-05-01T14:12:15.620Z,27.20
2019-05-01T14:14:47.792Z,30.40
2019-05-01T14:17:18.863Z,26.23
2019-05-01T14:20:03.807Z,23.15
2019-05-01T14:22:36.635Z,31.95
2019-05-01T14:25:09.498Z,29.85
2019-05-01T14:27:41.955Z,30.75
2019-05-01T14:30:15.340Z,33.10
2019-05-01T14:32:46.474Z,30.60
2019-05-01T14:35:17.652Z,27.98
2019-05-01T14:37:48.729Z,29.32
2019-05-01T14:40:20.241Z,32.63
2019-05-01T14:42:52.410Z,32.23
2019-05-01T14:45:24.359Z,38.48
2019-05-01T14:47:56.960Z,41.15
2019-05-01T14:50:28.136Z,43.73
2019-05-01T14:52:59.207Z,43.68
2019-05-01T14:55:30.302Z,46.30
2019-05-01T14:58:02.872Z,50.45
2019-05-01T15:00:34.891Z,47.93
2019-05-01T15:03:06.052Z,49.50
2019-05-01T15:05:37.592Z,42.33
2019-05-01T15:08:08.650Z,42.17
2019-05-01T15:10:40.186Z,45.45
2019-05-01T15:13:16.007Z,50.50
2019-05-01T15:16:07.393Z,53.30
2019-05-01T15:18:58.037Z,45.40
2019-05-01T15:21:29.055Z,47.48
2019-05-01T15:24:00.148Z,46.55
2019-05-01T15:26:31.227Z,46.80
2019-05-01T15:29:02.314Z,43.98
2019-05-01T15:31:34.290Z,47.93
2019-05-01T15:34:11.870Z,43.52
2019-05-01T15:36:43.230Z,39.25
2019-05-01T15:39:21.941Z,42.80
2019-05-01T15:42:03.834Z,40.70
2019-05-01T15:44:39.355Z,38.48
2019-05-01T15:47:11.348Z,36.55
2019-05-01T15:49:43.679Z,38.73
2019-05-01T15:52:16.414Z,38.42
2019-05-01T15:54:47.592Z,35.33
2019-05-01T15:57:18.923Z,37.53
2019-05-01T15:59:50.328Z,36.28
2019-05-01T16:02:22.257Z,34.70
2019-05-01T16:04:53.412Z,39.35
2019-05-01T16:07:25.214Z,31.35
2019-05-01T16:09:56.339Z,33.48
2019-05-01T16:12:33.975Z,34.27
2019-05-01T16:15:09.183Z,44.85
2019-05-01T16:17:43.231Z,33.48
2019-05-01T16:20:16.766Z,38.30
2019-05-01T16:22:47.199Z,34.95
2019-05-01T16:25:19.808Z,35.28
2019-05-01T16:27:52.477Z,35.23
2019-05-01T16:30:26.621Z,31.42
2019-05-01T16:33:00.271Z,30.75
2019-05-01T16:35:32.835Z,32.73
2019-05-01T16:38:05.560Z,36.42
2019-05-01T16:40:40.965Z,31.70
2019-05-01T16:43:12.549Z,39.67
2019-05-01T16:45:45.168Z,32.33
2019-05-01T16:48:17.899Z,37.03
2019-05-01T16:50:50.470Z,43.75
2019-05-01T16:53:21.542Z,34.92
2019-05-01T16:55:52.694Z,25.23
2019-05-01T16:58:24.074Z,35.17
2019-05-01T17:00:58.818Z,30.70
2019-05-01T17:03:37.744Z,24.70
2019-05-01T17:06:16.116Z,26.57
2019-05-01T17:08:48.740Z,26.80
2019-05-01T17:11:21.378Z,20.95
2019-05-01T17:13:52.434Z,22.25
2019-05-01T17:16:23.479Z,25.60
2019-05-01T17:18:55.858Z,32.23
2019-05-01T17:21:26.906Z,32.40
2019-05-01T17:23:58.230Z,27.60
2019-05-01T17:26:30.406Z,41.30
2019-05-01T17:29:01.586Z,32.10
2019-05-01T17:31:32.780Z,27.00
2019-05-01T17:34:03.990Z,22.30
2019-05-01T17:36:35.110Z,22.25
2019-05-01T17:39:08.176Z,21.90
2019-05-01T17:41:39.297Z,23.57
2019-05-01T17:44:10.388Z,22.77
2019-05-01T17:46:41.818Z,20.65
2019-05-01T17:49:16.796Z,23.07
2019-05-01T17:51:47.950Z,23.00
2019-05-01T17:54:19.014Z,22.00
2019-05-01T17:56:53.727Z,19.55
2019-05-01T17:59:26.011Z,20.48
2019-05-01T18:02:16.934Z,18.73
2019-05-01T18:05:05.667Z,22.27
2019-05-01T18:07:36.725Z,18.43
2019-05-01T18:10:09.964Z,24.27
2019-05-01T18:12:44.057Z,31.97
2019-05-01T18:15:15.321Z,23.62
2019-05-01T18:17:46.454Z,19.93
2019-05-01T18:20:19.943Z,17.67
2019-05-01T18:23:08.410Z,17.00
2019-05-01T18:25:47.797Z,18.07
2019-05-01T18:28:29.869Z,16.80
2019-05-01T18:31:00.096Z,18.83
2019-05-01T18:33:31.125Z,18.37
2019-05-01T18:36:04.152Z,17.33
2019-05-01T18:38:42.990Z,18.23
2019-05-01T18:41:19.961Z,18.85
2019-05-01T18:43:51.020Z,17.10
2019-05-01T18:46:23.590Z,17.67
2019-05-01T18:48:56.221Z,17.03
2019-05-01T18:51:28.194Z,18.77
2019-05-01T18:53:59.528Z,20.10
2019-05-01T18:56:30.619Z,20.23
2019-05-01T18:59:01.691Z,17.63
2019-05-01T19:01:32.855Z,21.60
2019-05-01T19:04:05.537Z,22.17
2019-05-01T19:06:41.773Z,24.53
2019-05-01T19:09:15.216Z,29.53
2019-05-01T19:11:42.741Z,22.37
2019-05-01T19:14:13.923Z,26.80
2019-05-01T19:16:50.842Z,26.37
2019-05-01T19:19:25.965Z,27.87
2019-05-01T19:21:57.875Z,26.48
2019-05-01T19:24:32.604Z,26.93
2019-05-01T19:27:05.643Z,31.25
2019-05-01T19:29:36.768Z,24.47
2019-05-01T19:32:09.779Z,23.38
2019-05-01T19:34:40.875Z,27.70
2019-05-01T19:37:16.471Z,27.05
2019-05-01T19:39:48.944Z,27.53
2019-05-01T19:42:21.557Z,30.08
2019-05-01T19:44:56.144Z,27.97
2019-05-01T19:47:28.613Z,32.37
2019-05-01T19:50:06.648Z,30.72
2019-05-01T19:52:37.813Z,31.50
2019-05-01T19:55:07.749Z,34.33
2019-05-01T19:57:42.061Z,32.10
2019-05-01T20:00:14.917Z,32.73
2019-05-01T20:02:46.096Z,31.37
2019-05-01T20:05:17.280Z,30.00
2019-05-01T20:07:51.175Z,31.97
2019-05-01T20:10:23.695Z,30.17
2019-05-01T20:12:54.767Z,30.77
2019-05-01T20:15:27.433Z,32.23
2019-05-01T20:18:00.098Z,31.93
2019-05-01T20:20:31.280Z,30.30
2019-05-01T20:23:04.128Z,29.05
2019-05-01T20:25:35.174Z,28.43
2019-05-01T20:28:09.349Z,27.70
2019-05-01T20:30:42.006Z,29.43
2019-05-01T20:33:13.124Z,30.83
2019-05-01T20:35:44.188Z,28.30
2019-05-01T20:38:18.348Z,32.57
2019-05-01T20:40:52.348Z,30.07
2019-05-01T20:43:23.580Z,32.45
2019-05-01T20:45:54.648Z,29.83
2019-05-01T20:48:25.842Z,28.87
2019-05-01T20:50:58.349Z,30.80
2019-05-01T20:53:30.308Z,30.73
2019-05-01T20:56:02.961Z,33.07
2019-05-01T20:58:34.129Z,33.40
2019-05-01T21:01:05.542Z,30.43
2019-05-01T21:03:38.381Z,31.17
2019-05-01T21:06:11.102Z,32.07
2019-05-01T21:08:50.117Z,33.47
2019-05-01T21:11:26.234Z,32.37
2019-05-01T21:14:15.576Z,30.83
2019-05-01T21:16:32.948Z,34.17
2019-05-01T21:19:03.487Z,31.77
2019-05-01T21:21:34.566Z,33.17
2019-05-01T21:24:05.766Z,29.73
2019-05-01T21:26:38.628Z,29.03
2019-05-01T21:29:09.724Z,30.00
2019-05-01T21:31:40.986Z,31.40
2019-05-01T21:34:14.380Z,35.20
2019-05-01T21:36:47.669Z,32.17
2019-05-01T21:39:19.895Z,32.10
2019-05-01T21:41:50.796Z,28.53
2019-05-01T21:44:23.370Z,31.93
2019-05-01T21:46:54.788Z,29.97
2019-05-01T21:49:28.624Z,33.70
2019-05-01T21:52:03.577Z,29.02
2019-05-01T21:54:35.610Z,29.02
2019-05-01T21:57:06.846Z,30.30
2019-05-01T21:59:43.700Z,28.23
2019-05-01T22:02:12.432Z,30.40
2019-05-01T22:04:44.980Z,30.30
2019-05-01T22:07:16.125Z,26.50
2019-05-01T22:09:50.559Z,26.50
2019-05-01T22:12:20.554Z,30.92
2019-05-01T22:14:56.300Z,26.70
2019-05-01T22:17:33.419Z,27.40
2019-05-01T22:20:07.490Z,27.30
2019-05-01T22:22:44.019Z,25.80
2019-05-01T22:25:18.355Z,25.90
2019-05-01T22:27:51.117Z,25.87
2019-05-01T22:30:27.070Z,24.47
2019-05-01T22:32:59.642Z,24.63
2019-05-01T22:35:32.388Z,24.83
2019-05-01T22:38:05.458Z,22.23
2019-05-01T22:41:05.526Z,29.13
2019-05-01T22:43:25.741Z,27.20
2019-05-01T22:46:01.754Z,22.63
2019-05-01T22:48:29.648Z,21.83
2019-05-01T22:51:02.393Z,22.58
2019-05-01T22:53:33.474Z,25.08
2019-05-01T22:56:05.436Z,25.13
2019-05-01T22:58:40.872Z,21.63
2019-05-01T23:01:13.398Z,25.60
2019-05-01T23:03:49.001Z,24.27
2019-05-01T23:06:21.683Z,23.50
2019-05-01T23:08:52.725Z,23.03
2019-05-01T23:11:29.373Z,25.23
2019-05-01T23:14:01.991Z,23.13
2019-05-01T23:16:34.921Z,25.00
2019-05-01T23:19:06.104Z,22.13
2019-05-01T23:21:39.601Z,26.17
2019-05-01T23:24:12.239Z,23.50
2019-05-01T23:26:48.085Z,20.20
2019-05-01T23:29:17.909Z,26.27
2019-05-01T23:31:49.038Z,21.47
2019-05-01T23:34:21.218Z,23.33
2019-05-01T23:36:52.870Z,21.40
2019-05-01T23:39:23.947Z,19.15
2019-05-01T23:41:56.508Z,20.32
2019-05-01T23:44:27.610Z,22.17
2019-05-01T23:47:00.284Z,23.33
2019-05-01T23:49:31.307Z,19.43
2019-05-01T23:52:03.337Z,19.57
2019-05-01T23:54:35.256Z,20.77
2019-05-01T23:57:07.140Z,18.63
2019-05-01T23:59:38.298Z,20.03
